Latest Weather Observations for Cape Wessel

IDD60801

Issued at 10:31 pm CST Tuesday 7 July 2015 (issued every 30 minutes, with the page automatically refreshed every 10 minutes)

About weather observations | Map of weather stations | Latest weather observations for NT | Other Formats
Station Details ID: 200786 Name: CAPE WESSEL Lat: -11.00 Lon: 136.76 Height: 18.0 m
Data from the previous 72 hours. | See also: Recent months for locations in Northern Territory
Date/Time
CST
Temp
°C
App
Temp
°C
Dew
Point
Rel
Hum
%
Delta-T
°C
Wind Press
QNH
hPa
Press
MSL
hPa
Rain
since 9 am
mm
Dir
 
Spd
km/h
Gust
km/h
Spd
kts
Gust
kts
07/10:30pm 24.7 23.0 19.8 74 3.2 ESE 28 37 15 20 1012.9 - 1.0
07/10:00pm 24.2 23.6 20.5 80 2.4 ESE 24 35 13 19 1012.9 - 1.0
07/09:30pm 25.7 22.8 18.9 66 4.3 E 32 41 17 22 1012.9 - 0.8
07/09:00pm 25.6 23.3 19.3 68 4.1 E 30 35 16 19 1012.7 1012.6 0.8
07/08:30pm 25.6 23.4 19.5 69 3.9 E 30 35 16 19 1012.6 - 0.8
07/08:00pm 24.4 24.6 20.5 79 2.5 SSE 20 24 11 13 1012.4 - 0.8
07/07:30pm 24.5 24.6 21.2 82 2.2 SE 22 28 12 15 1012.2 - 0.8
07/07:00pm 24.2 23.9 21.1 83 2.0 S 24 30 13 16 1012.2 - 0.8
07/06:30pm 24.4 23.6 20.9 81 2.3 SSE 26 33 14 18 1012.1 - 0.8
07/06:00pm 25.7 24.9 19.3 67 4.1 E 22 28 12 15 1011.8 1011.7 0.8
07/05:30pm 25.8 23.9 18.5 64 4.6 E 26 32 14 17 1011.5 - 0.8
07/05:00pm 26.1 24.5 19.2 65 4.4 ESE 26 32 14 17 1011.3 - 0.8
07/04:30pm 25.9 27.6 20.9 74 3.3 SSE 13 17 7 9 1011.2 - 0.8
07/04:00pm 26.7 28.2 21.2 72 3.6 SSE 15 20 8 11 1011.2 - 0.8
07/03:30pm 26.3 27.8 21.3 74 3.3 SSE 15 19 8 10 1011.4 - 0.8
07/03:00pm 26.0 26.8 20.6 72 3.5 SE 17 20 9 11 1011.5 1011.4 0.8
07/02:30pm 26.3 27.1 20.6 71 3.7 SE 17 22 9 12 1011.7 - 0.8
07/02:00pm 26.2 25.8 20.1 69 4.0 SE 22 28 12 15 1012.0 - 0.8
07/01:30pm 27.4 28.6 20.7 67 4.4 E 15 24 8 13 1012.2 - 0.8
07/01:00pm 27.5 26.8 19.6 62 5.1 E 22 28 12 15 1012.6 - 0.6
07/12:30pm 26.7 25.5 20.1 67 4.3 E 26 32 14 17 1013.2 - 0.6
07/12:00pm 25.5 23.9 20.7 75 3.1 E 30 37 16 20 1013.9 1013.8 0.6
07/11:30am 24.4 21.4 21.3 83 2.0 ESE 39 46 21 25 1014.2 - 0.6
07/11:00am 23.8 23.2 21.9 89 1.3 ESE 28 39 15 21 1014.5 - 0.6
07/10:30am 25.5 23.6 20.1 72 3.5 ESE 30 37 16 20 1014.5 - 0.2
07/10:00am 26.3 25.3 20.4 70 3.9 SE 26 32 14 17 1014.6 - 0.0
07/09:30am 26.1 26.8 21.5 76 3.1 E 20 28 11 15 1014.7 - 0.0
07/09:00am 25.8 25.5 20.4 72 3.5 E 22 33 12 18 1014.6 1014.5 0.0
07/08:30am 26.3 26.2 19.9 68 4.2 E 20 26 11 14 1014.3 - 0.0
07/08:00am 26.1 25.9 19.7 68 4.1 ESE 20 26 11 14 1013.9 - 0.0
07/07:30am 25.3 24.6 19.4 70 3.8 ESE 22 28 12 15 1013.6 - 0.0
07/07:00am 24.7 23.7 18.9 70 3.7 ESE 22 28 12 15 1013.2 - 0.0
07/06:30am 24.6 23.3 19.0 71 3.6 ESE 24 30 13 16 1012.9 - 0.0
07/06:00am 24.6 22.6 18.3 68 4.0 ESE 26 32 14 17 1012.8 1012.7 0.0
07/05:30am 24.8 22.6 18.7 69 3.9 ESE 28 33 15 18 1012.8 - 0.0
07/05:00am 24.7 22.8 18.6 69 3.9 ESE 26 32 14 17 1012.5 - 0.0
07/04:30am 24.8 23.0 18.7 69 3.9 ESE 26 32 14 17 1012.3 - 0.0
07/04:00am 24.7 23.0 18.9 70 3.7 ESE 26 33 14 18 1012.2 - 0.0
07/03:30am 24.9 22.4 18.8 69 3.9 ESE 30 35 16 19 1012.1 - 0.0
07/03:00am 25.0 22.9 18.9 69 3.9 ESE 28 35 15 19 1012.0 1011.9 0.0
07/02:30am 25.0 22.4 18.7 68 4.0 ESE 30 39 16 21 1012.3 - 0.0
07/02:00am 25.0 22.0 18.7 68 4.0 ESE 32 39 17 21 1012.4 - 0.0
07/01:30am 25.0 22.9 18.9 69 3.9 ESE 28 35 15 19 1012.5 - 0.0
07/01:00am 25.0 22.5 18.9 69 3.9 ESE 30 39 16 21 1012.6 - 0.0
07/12:30am 25.2 22.4 19.1 69 3.9 ESE 32 37 17 20 1012.8 - 0.0
07/12:00am 25.3 22.9 19.9 72 3.5 ESE 32 37 17 20 1012.8 - 0.0
 
Date/Time
CST
Temp
°C
App
Temp
°C
Dew
Point
Rel
Hum
%
Delta-T
°C
Wind Press
QNH
hPa
Press
MSL
hPa
Rain
since 9 am
mm
Dir
 
Spd
km/h
Gust
km/h
Spd
kts
Gust
kts
06/11:30pm 25.2 22.8 19.1 69 3.9 ESE 30 39 16 21 1013.0 - 0.0
06/11:00pm 25.3 22.6 19.2 69 3.9 ESE 32 37 17 20 1013.1 - 0.0
06/10:30pm 25.3 22.7 19.4 70 3.8 ESE 32 39 17 21 1013.3 - 0.0
06/10:00pm 25.3 22.4 19.2 69 3.9 ESE 33 39 18 21 1013.3 - 0.0
06/09:30pm 25.3 22.0 19.2 69 3.9 E 35 43 19 23 1013.2 - 0.0
06/09:00pm 25.3 22.4 19.2 69 3.9 E 33 41 18 22 1013.0 1012.9 0.0
06/08:30pm 25.3 22.3 19.0 68 4.0 E 33 41 18 22 1012.9 - 0.0
06/08:00pm 25.5 22.2 19.2 68 4.0 E 35 43 19 23 1012.7 - 0.0
06/07:30pm 25.4 22.1 19.3 69 3.9 ESE 35 41 19 22 1012.4 - 0.0
06/07:00pm 25.4 22.4 19.1 68 4.0 E 33 41 18 22 1012.2 - 0.0
06/06:30pm 25.7 23.1 19.8 70 3.8 ESE 33 41 18 22 1012.0 - 0.0
06/06:00pm 25.7 23.2 19.8 70 3.8 E 32 39 17 21 1011.8 1011.7 0.0
06/05:30pm 25.9 23.6 20.2 71 3.7 E 32 39 17 21 1011.6 - 0.0
06/05:00pm 26.0 23.8 20.3 71 3.7 E 32 37 17 20 1011.4 - 0.0
06/04:30pm 26.2 23.8 20.3 70 3.9 E 33 39 18 21 1011.3 - 0.0
06/04:00pm 26.1 24.1 20.7 72 3.5 E 32 39 17 21 1011.4 - 0.0
06/03:30pm 25.9 23.6 20.2 71 3.7 E 32 37 17 20 1011.4 - 0.0
06/03:00pm 25.9 23.6 20.2 71 3.7 E 32 39 17 21 1011.4 1011.3 0.0
06/02:30pm 26.3 25.3 20.4 70 3.9 E 26 33 14 18 1011.7 - 0.0
06/02:00pm 26.0 25.9 21.4 76 3.1 ENE 24 30 13 16 1012.1 - 0.0
06/01:30pm 24.1 22.6 21.8 87 1.5 ENE 32 41 17 22 1012.3 - 0.0
06/01:07pm 24.3 21.1 20.2 78 2.7 ENE 37 43 20 23 1012.6 - 0.0
06/01:00pm 25.6 27.5 22.1 81 2.3 ENE 15 17 8 9 1012.5 - 0.0
06/12:30pm 24.6 24.4 22.1 86 1.7 E 26 35 14 19 1012.8 - 0.0
06/12:00pm 25.7 26.0 21.6 78 2.7 E 22 35 12 19 1013.1 1013.0 0.0
06/11:30am 26.3 26.7 22.4 79 2.6 ENE 24 32 13 17 1013.4 - 0.0
06/11:00am 27.0 25.0 21.1 70 3.9 E 33 41 18 22 1013.7 - 0.0
06/10:30am 27.7 26.6 21.7 70 4.0 E 30 35 16 19 1014.0 - 0.0
06/10:00am 27.2 25.4 21.2 69 4.0 E 32 37 17 20 1014.1 - 0.0
06/09:30am 26.8 25.1 20.6 69 4.1 E 30 35 16 19 1014.2 - 0.0
06/09:00am 26.1 23.9 20.4 71 3.7 ESE 32 35 17 19 1014.1 1014.0 0.2
06/08:30am 26.9 25.2 20.5 68 4.2 E 30 37 16 20 1014.0 - 0.2
06/08:00am 26.1 24.3 20.4 71 3.7 ESE 30 37 16 20 1013.7 - 0.2
06/07:30am 25.4 24.0 20.4 74 3.3 ESE 28 37 15 20 1013.5 - 0.2
06/07:00am 25.2 23.5 20.5 75 3.1 ESE 30 37 16 20 1013.3 - 0.2
06/06:30am 25.1 23.4 20.6 76 2.9 ESE 30 35 16 19 1013.0 - 0.2
06/06:00am 25.3 23.4 21.0 77 2.8 ESE 32 41 17 22 1012.9 1012.8 0.2
06/05:30am 25.0 23.0 20.7 77 2.8 ESE 32 39 17 21 1012.8 - 0.2
06/05:00am 25.3 24.0 21.4 79 2.6 E 30 37 16 20 1012.8 - 0.2
06/04:30am 25.2 22.9 20.2 74 3.3 E 32 37 17 20 1012.6 - 0.2
06/04:00am 25.1 23.8 20.6 76 2.9 E 28 35 15 19 1012.4 - 0.2
06/03:30am 25.1 23.2 20.1 74 3.2 E 30 39 16 21 1012.4 - 0.2
06/03:00am 25.1 23.2 20.1 74 3.2 E 30 37 16 20 1012.5 1012.4 0.2
06/02:30am 25.1 23.3 20.4 75 3.1 E 30 37 16 20 1012.6 - 0.2
06/02:00am 25.3 23.8 21.0 77 2.8 E 30 35 16 19 1012.8 - 0.2
06/01:30am 25.5 23.4 20.5 74 3.3 E 32 39 17 21 1013.0 - 0.2
06/01:00am 25.2 23.7 20.9 77 2.8 E 30 37 16 20 1013.1 - 0.2
06/12:30am 25.1 24.2 20.6 76 2.9 E 26 32 14 17 1013.3 - 0.2
06/12:00am 25.2 24.4 20.9 77 2.8 E 26 32 14 17 1013.5 1013.4 0.2
 
Date/Time
CST
Temp
°C
App
Temp
°C
Dew
Point
Rel
Hum
%
Delta-T
°C
Wind Press
QNH
hPa
Press
MSL
hPa
Rain
since 9 am
mm
Dir
 
Spd
km/h
Gust
km/h
Spd
kts
Gust
kts
05/11:30pm 25.4 24.6 20.9 76 3.0 E 26 32 14 17 1013.7 - 0.2
05/11:00pm 25.3 24.1 20.8 76 3.0 E 28 33 15 18 1013.8 - 0.2
05/10:30pm 25.4 24.2 20.9 76 3.0 E 28 33 15 18 1014.0 - 0.2
05/10:00pm 25.4 24.7 21.1 77 2.8 E 26 32 14 17 1013.9 - 0.2
05/09:30pm 25.3 24.5 20.8 76 3.0 E 26 32 14 17 1014.0 - 0.2
05/09:00pm 25.5 25.3 21.2 77 2.8 E 24 30 13 16 1013.7 1013.6 0.2
05/08:30pm 25.3 24.9 21.0 77 2.8 E 24 30 13 16 1013.5 - 0.2
05/08:00pm 25.4 25.4 20.9 76 3.0 E 22 28 12 15 1013.3 - 0.2
05/07:30pm 25.5 25.4 20.7 75 3.1 E 22 28 12 15 1013.2 - 0.2
05/07:00pm 25.6 24.6 20.4 73 3.4 E 26 32 14 17 1012.8 - 0.2
05/06:30pm 25.8 24.8 20.4 72 3.5 E 26 32 14 17 1012.6 - 0.2
05/06:00pm 25.6 26.1 21.1 76 3.0 ESE 20 28 11 15 1012.3 1012.2 0.2
05/05:30pm 26.3 27.0 21.5 75 3.2 ESE 20 26 11 14 1012.2 - 0.2
05/05:00pm 26.6 27.1 21.1 72 3.6 E 20 26 11 14 1012.1 - 0.2
05/04:30pm 27.1 27.6 21.2 70 3.9 E 20 26 11 14 1012.1 - 0.2
05/04:00pm 27.7 28.6 21.5 69 4.1 E 19 24 10 13 1012.0 - 0.2
05/03:30pm 27.5 27.8 20.8 67 4.4 E 20 26 11 14 1012.0 - 0.2
05/03:00pm 27.7 28.0 21.5 69 4.1 E 22 28 12 15 1012.1 1012.0 0.2
05/02:30pm 27.6 27.5 21.4 69 4.1 ESE 24 30 13 16 1012.3 - 0.2
05/02:00pm 27.7 27.5 21.3 68 4.3 E 24 32 13 17 1012.4 - 0.2
05/01:30pm 27.8 27.8 21.6 69 4.1 ESE 24 30 13 16 1012.8 - 0.2
05/01:00pm 27.8 28.1 21.6 69 4.1 ESE 22 28 12 15 1013.3 - 0.2
05/12:30pm 27.7 26.5 21.5 69 4.1 E 30 37 16 20 1013.4 - 0.2
05/12:00pm 26.6 24.6 20.7 70 3.9 ESE 32 35 17 19 1013.6 1013.5 0.2
05/11:30am 27.5 26.2 21.3 69 4.1 ESE 30 37 16 20 1014.2 - 0.2
05/11:00am 27.0 25.2 21.1 70 3.9 ESE 32 39 17 21 1014.4 - 0.0
05/10:30am 27.2 26.2 21.2 69 4.0 ESE 28 33 15 18 1014.8 - 0.0
05/10:00am 26.6 25.1 20.9 71 3.8 ESE 30 35 16 19 1014.8 - 0.0
05/09:30am 25.7 24.4 20.7 74 3.3 ESE 28 33 15 18 1014.8 - 0.0
05/09:00am 25.2 23.5 20.5 75 3.1 ESE 30 37 16 20 1014.9 1014.8 0.2
05/08:30am 25.2 23.8 20.5 75 3.1 ESE 28 35 15 19 1014.6 - 0.2
05/08:00am 25.5 23.9 20.1 72 3.5 ESE 28 35 15 19 1014.3 - 0.2
05/07:30am 25.4 23.2 20.4 74 3.3 ESE 32 37 17 20 1013.9 - 0.2
05/07:00am 24.9 22.7 20.4 76 2.9 ESE 32 39 17 21 1013.6 - 0.2
05/06:30am 24.6 21.9 19.2 72 3.5 ESE 32 39 17 21 1013.3 - 0.2
05/06:00am 24.9 22.4 19.7 73 3.4 ESE 32 37 17 20 1013.1 1013.0 0.2
05/05:30am 25.0 22.2 19.1 70 3.8 ESE 32 39 17 21 1012.9 - 0.2
05/05:00am 25.0 22.2 19.1 70 3.8 ESE 32 39 17 21 1012.6 - 0.2
05/04:30am 25.0 22.6 19.1 70 3.8 ESE 30 37 16 20 1012.6 - 0.2
05/04:00am 25.2 22.8 19.1 69 3.9 ESE 30 39 16 21 1012.5 - 0.2
05/03:30am 25.2 22.5 19.3 70 3.8 ESE 32 37 17 20 1012.5 - 0.2
05/03:00am 25.2 22.5 19.3 70 3.8 ESE 32 37 17 20 1012.5 1012.4 0.2
05/02:30am 25.3 22.6 19.7 71 3.6 ESE 33 41 18 22 1012.7 - 0.2
05/02:00am 25.3 22.2 19.7 71 3.6 E 35 43 19 23 1012.7 - 0.2
05/01:30am 25.3 22.6 19.7 71 3.6 E 33 43 18 23 1012.9 - 0.2
05/01:00am 25.2 22.7 19.8 72 3.5 ESE 32 39 17 21 1012.9 - 0.2
05/12:30am 25.2 22.3 19.3 70 3.8 E 33 43 18 23 1013.0 - 0.2
05/12:00am 25.2 21.9 19.3 70 3.8 E 35 43 19 23 1013.0 1012.9 0.2
 
Date/Time
CST
Temp
°C
App
Temp
°C
Dew
Point
Rel
Hum
%
Delta-T
°C
Wind Press
QNH
hPa
Press
MSL
hPa
Rain
since 9 am
mm
Dir
 
Spd
km/h
Gust
km/h
Spd
kts
Gust
kts
04/11:30pm 25.0 22.3 19.6 72 3.5 E 33 41 18 22 1013.2 - 0.2
04/11:00pm 25.0 22.2 19.4 71 3.6 E 33 41 18 22 1013.2 - 0.2

Other Formats:

Comma delimited format used in spreadsheet applications
http://www.bom.gov.au/fwo/IDD60801/IDD60801.94147.axf

JavaScript Object Notation format (JSON) in row-major order
http://www.bom.gov.au/fwo/IDD60801/IDD60801.94147.json